Time;durP1;ratioP1;P1;durP2;ratioP2;P2;SDS_P1;SDS_P2;PMS_P1;PMS_P2;Temp;Humidity;BMP_temperature;BMP_pressure;BME280_temperature;BME280_humidity;BME280_pressure;Samples;Min_cycle;Max_cycle;Signal;HPM_P1;HPM_P2
2022/11/25 00:08:41;;;;;;;141.90;59.40;;;;;;;0.96;91.54;98503.06;420006;1301;98391;-40
2022/11/25 00:18:50;;;;;;;175.10;59.80;;;;;;;0.84;91.33;98497.10;420092;1293;110262;-40
2022/11/25 00:28:58;;;;;;;;;;;;;;;0.75;91.32;98498.10;420084;1285;108922;-40
2022/11/25 00:39:09;;;;;;;147.00;61.40;;;;;;;0.78;91.41;98497.59;419978;1284;98777;-40
2022/11/25 00:49:17;;;;;;;143.50;57.90;;;;;;;0.88;91.45;98502.19;419915;1293;113522;-40
2022/11/25 00:59:24;;;;;;;128.20;54.60;;;;;;;0.99;91.55;98510.41;419845;1294;107336;-40
2022/11/25 01:09:31;;;;;;;160.20;62.10;;;;;;;1.13;91.76;98515.39;420042;1301;98037;-40
2022/11/25 01:19:39;;;;;;;164.00;61.00;;;;;;;1.02;91.64;98517.35;420012;1298;108637;-41
2022/11/25 01:29:46;;;;;;;158.90;60.60;;;;;;;0.92;91.58;98519.16;420230;1295;99233;-40
2022/11/25 01:39:53;;;;;;;171.20;61.00;;;;;;;0.83;91.62;98518.20;420159;1301;111879;-40
2022/11/25 01:50:04;;;;;;;135.50;51.80;;;;;;;0.82;91.48;98513.61;419989;1294;107708;-40
2022/11/25 02:00:13;;;;;;;113.40;49.70;;;;;;;0.93;91.49;98520.02;419838;1294;99233;-40
2022/11/25 02:10:31;;;;;;;88.80;42.60;;;;;;;1.07;91.79;98527.86;420491;1270;111363;31
2022/11/25 02:20:40;;;;;;;79.10;36.00;;;;;;;1.11;91.46;98534.70;418405;1296;109425;-40
2022/11/25 02:30:48;;;;;;;70.80;34.60;;;;;;;1.17;91.59;98532.13;418498;1302;98199;-40
2022/11/25 02:41:00;;;;;;;90.90;38.90;;;;;;;1.24;91.66;98536.20;418532;1303;108211;-40
2022/11/25 02:51:09;;;;;;;98.70;40.90;;;;;;;1.11;91.62;98537.66;418545;1307;99268;-40
2022/11/25 03:01:16;;;;;;;82.30;36.80;;;;;;;1.00;91.52;98546.00;418549;1297;112396;-43
2022/11/25 03:21:31;;;;;;;66.70;33.70;;;;;;;0.92;91.39;98555.08;418462;1299;98848;-40
2022/11/25 03:31:39;;;;;;;61.20;31.50;;;;;;;0.93;91.57;98554.74;418521;1297;109453;-41
2022/11/25 03:41:46;;;;;;;69.00;33.90;;;;;;;1.00;91.76;98562.02;418587;1297;98424;-39
2022/11/25 03:51:53;;;;;;;57.30;32.80;;;;;;;1.06;91.78;98565.42;418517;1303;112981;-39
2022/11/25 04:02:01;;;;;;;76.00;37.90;;;;;;;1.22;91.95;98568.21;418503;1296;107158;-40
2022/11/25 04:22:32;;;;;;;88.70;42.00;;;;;;;1.10;91.90;98570.71;418530;1304;111797;-40
2022/11/25 04:32:39;;;;;;;93.40;43.40;;;;;;;0.98;91.82;98576.56;418476;1307;107116;-40
2022/11/25 04:42:47;;;;;;;80.20;40.00;;;;;;;0.95;91.92;98576.55;418571;1296;98880;-40
2022/11/25 05:03:00;;;;;;;63.30;34.60;;;;;;;1.09;91.78;98590.31;418528;1306;108471;-40
2022/11/25 05:13:08;;;;;;;66.00;36.00;;;;;;;1.16;91.85;98594.51;418502;1307;98048;-40
2022/11/25 05:23:15;;;;;;;62.70;36.00;;;;;;;1.30;92.02;98607.77;418479;1298;108256;-40
2022/11/25 05:33:22;;;;;;;83.60;42.50;;;;;;;1.33;92.17;98617.70;418548;1304;98846;-39
2022/11/25 05:43:30;;;;;;;91.30;44.30;;;;;;;1.25;92.12;98625.73;418632;1307;111714;-38
2022/11/25 05:53:37;;;;;;;78.00;37.50;;;;;;;1.14;92.22;98632.99;418538;1304;108812;-37
2022/11/25 06:03:45;;;;;;;81.80;43.60;;;;;;;1.11;91.98;98639.04;419730;1310;99231;-40
2022/11/25 06:13:52;;;;;;;73.30;37.80;;;;;;;1.21;92.23;98640.36;418408;1303;110985;-40
2022/11/25 06:24:00;;;;;;;67.30;37.60;;;;;;;1.36;92.25;98642.33;418342;1289;107174;-40
2022/11/25 06:44:15;;;;;;;94.00;45.40;;;;;;;1.51;92.21;98660.45;418603;1307;107944;-39
2022/11/25 06:54:22;;;;;;;105.50;46.00;;;;;;;1.44;92.27;98669.27;418576;1306;99125;-40
2022/11/25 07:14:37;;;;;;;95.60;43.70;;;;;;;1.42;92.38;98676.09;418591;1305;108603;-39
2022/11/25 07:24:45;;;;;;;77.70;42.80;;;;;;;1.62;92.26;98678.69;418553;1305;98092;-40
2022/11/25 07:34:51;;;;;;;72.00;39.80;;;;;;;1.84;92.29;98682.96;418446;1306;108032;-40
2022/11/25 07:44:58;;;;;;;90.60;45.50;;;;;;;2.12;92.27;98692.63;418476;1302;98099;-40
2022/11/25 07:55:04;;;;;;;99.90;51.40;;;;;;;2.25;92.25;98698.37;418528;1306;112702;-40
2022/11/25 08:05:12;;;;;;;100.50;48.90;;;;;;;2.38;92.23;98709.20;418483;1305;108865;-39
2022/11/25 08:15:19;;;;;;;95.40;46.30;;;;;;;2.35;91.91;98715.77;418374;1306;99243;-38
2022/11/25 08:25:28;;;;;;;73.00;38.20;;;;;;;2.48;92.00;98723.45;418526;1304;112180;-41
2022/11/25 08:45:43;;;;;;;46.70;26.80;;;;;;;3.00;91.92;98729.45;418486;1307;99268;-39
2022/11/25 08:55:51;;;;;;;68.20;34.40;;;;;;;3.23;91.95;98734.11;418570;1310;108588;-39
2022/11/25 09:05:59;;;;;;;70.80;34.70;;;;;;;3.27;91.96;98745.45;418426;1307;98030;-40
2022/11/25 09:16:07;;;;;;;82.80;38.50;;;;;;;3.28;91.87;98749.70;418572;1307;112250;-40
2022/11/25 09:26:18;;;;;;;69.70;36.20;;;;;;;3.34;91.71;98746.70;418327;1305;108839;-39
2022/11/25 09:36:26;;;;;;;61.90;30.00;;;;;;;3.41;91.61;98749.77;418574;1306;98425;-39
2022/11/25 09:46:44;;;;;;;60.80;29.50;;;;;;;3.55;91.88;98747.52;418346;1303;108213;-40
2022/11/25 09:56:53;;;;;;;;;;;;;;;3.68;92.06;98742.87;418430;1306;98041;-39
2022/11/25 10:07:03;;;;;;;78.90;33.50;;;;;;;3.71;91.99;98747.02;418536;1298;113340;-40
2022/11/25 10:17:10;;;;;;;84.50;34.20;;;;;;;3.76;91.92;98741.52;418550;1306;108562;-40
2022/11/25 10:27:23;;;;;;;54.80;27.60;;;;;;;4.03;91.93;98744.17;418579;1307;99396;-40
2022/11/25 10:37:28;;;;;;;53.00;27.50;;;;;;;4.22;91.72;98749.60;418506;1307;109779;-40
2022/11/25 10:47:34;;;;;;;38.30;19.80;;;;;;;4.38;91.82;98747.83;418573;1297;99358;-40
2022/11/25 11:08:06;;;;;;;70.70;34.80;;;;;;;4.53;92.07;98749.70;418584;1306;107845;-39
2022/11/25 11:18:15;;;;;;;63.30;33.50;;;;;;;4.75;92.22;98750.14;418224;1297;347865;-41
2022/11/25 11:28:27;;;;;;;45.10;22.80;;;;;;;4.81;91.97;98757.67;418405;1297;107467;-39
2022/11/25 11:38:40;;;;;;;37.80;20.00;;;;;;;4.83;91.71;98760.67;418485;1305;99263;-39
2022/11/25 11:48:53;;;;;;;38.00;19.60;;;;;;;4.91;91.89;98755.23;418595;1305;111282;-40
2022/11/25 11:59:06;;;;;;;45.90;22.40;;;;;;;4.92;91.99;98763.33;418409;1291;107376;-39
2022/11/25 12:19:21;;;;;;;53.90;29.10;;;;;;;4.78;91.76;98768.19;418637;1308;107849;-40
2022/11/25 12:29:28;;;;;;;57.80;31.90;;;;;;;4.70;91.71;98763.63;418527;1293;99281;-40
2022/11/25 12:39:39;;;;;;;55.60;30.30;;;;;;;4.68;91.93;98769.24;418509;1308;112121;-40
2022/11/25 12:49:49;;;;;;;72.70;39.50;;;;;;;4.73;92.10;98767.15;418448;1300;108520;-39
2022/11/25 13:00:12;;;;;;;94.70;54.20;;;;;;;4.68;92.20;98767.52;418665;1307;98733;-40
2022/11/25 13:10:49;;;;;;;106.40;51.90;;;;;;;4.67;92.28;98763.31;418494;1297;107527;-39
2022/11/25 13:20:56;;;;;;;73.50;44.40;;;;;;;4.69;92.12;98771.42;418403;1308;98597;-39
2022/11/25 13:31:20;;;;;;;77.50;42.70;;;;;;;4.75;92.00;98776.82;418627;1306;112471;-40
2022/11/25 13:51:48;;;;;;;98.00;50.90;;;;;;;4.72;92.04;98779.12;418566;1297;99367;-39
2022/11/25 14:02:16;;;;;;;104.20;55.80;;;;;;;4.61;92.16;98787.73;418521;1304;107894;-40
2022/11/25 14:12:53;;;;;;;79.40;50.80;;;;;;;4.52;92.07;98792.92;418526;1303;99273;-40
2022/11/25 14:23:23;;;;;;;71.60;44.20;;;;;;;4.48;92.17;98801.23;418522;1303;110940;-39
2022/11/25 14:33:34;;;;;;;82.70;50.60;;;;;;;4.49;92.33;98808.23;418413;1298;108624;-39
2022/11/25 14:43:43;;;;;;;100.30;56.40;;;;;;;4.54;92.58;98809.55;418473;1303;99281;-41
2022/11/25 15:04:03;;;;;;;134.20;71.60;;;;;;;4.43;92.76;98821.39;418682;1305;99352;-39
2022/11/25 15:14:23;;;;;;;106.50;60.70;;;;;;;4.29;92.58;98825.52;418501;1300;111358;-40
2022/11/25 15:24:32;;;;;;;124.80;67.50;;;;;;;4.32;92.67;98820.76;418423;1291;108827;-40
2022/11/25 15:34:40;;;;;;;124.10;70.10;;;;;;;4.29;92.59;98821.53;418549;1303;98070;-39
2022/11/25 15:44:48;;;;;;;125.50;73.70;;;;;;;4.29;92.81;98828.63;418366;1297;108826;-39
2022/11/25 15:55:01;;;;;;;208.90;104.10;;;;;;;4.29;92.90;98835.69;418565;1302;98047;-40
2022/11/25 16:15:42;;;;;;;187.60;90.70;;;;;;;3.97;92.80;98838.08;418393;1304;108430;-38
2022/11/25 16:25:54;;;;;;;142.50;78.90;;;;;;;3.98;92.91;98850.13;418516;1296;99269;-40
2022/11/25 16:36:01;;;;;;;180.30;101.00;;;;;;;3.99;93.05;98847.08;418427;1297;107290;-39
2022/11/25 16:46:16;;;;;;;176.90;93.80;;;;;;;3.98;92.99;98852.26;418543;1296;99239;-39
2022/11/25 16:56:27;;;;;;;164.20;89.60;;;;;;;3.93;92.83;98855.79;418484;1290;111350;-40
2022/11/25 17:06:36;;;;;;;136.00;80.90;;;;;;;3.86;92.82;98855.98;418472;1308;108733;-39
2022/11/25 17:16:43;;;;;;;160.10;85.90;;;;;;;3.83;93.05;98860.33;418666;1297;98677;-39
2022/11/25 17:26:55;;;;;;;150.60;82.00;;;;;;;3.83;93.10;98873.12;418587;1300;108033;-40
2022/11/25 17:37:04;;;;;;;169.00;94.80;;;;;;;3.81;93.16;98879.22;418466;1306;99400;-42
2022/11/25 17:47:10;;;;;;;216.30;111.50;;;;;;;3.76;93.11;98884.88;418510;1307;110390;-40
2022/11/25 17:57:22;;;;;;;186.80;102.00;;;;;;;3.69;93.17;98894.08;418430;1296;105687;-39
2022/11/25 18:07:29;;;;;;;180.20;104.10;;;;;;;3.68;93.37;98898.08;418553;1307;98850;-39
2022/11/25 18:17:36;;;;;;;141.40;87.80;;;;;;;3.71;93.43;98905.37;418432;1307;108460;-40
2022/11/25 18:27:44;;;;;;;113.40;64.00;;;;;;;3.80;93.72;98902.21;418472;1307;99244;-38
2022/11/25 18:37:51;;;;;;;110.50;65.40;;;;;;;3.89;93.72;98898.16;418550;1307;112526;-40
2022/11/25 18:47:58;;;;;;;109.10;64.90;;;;;;;3.91;93.80;98910.33;418356;1307;107837;-40
2022/11/25 18:58:10;;;;;;;136.90;79.60;;;;;;;3.87;93.57;98912.92;418562;1297;99233;-39
2022/11/25 19:18:26;;;;;;;169.20;87.40;;;;;;;3.42;93.47;98915.23;418580;1296;99281;-42
2022/11/25 19:28:34;;;;;;;157.20;91.90;;;;;;;3.26;93.55;98918.81;418539;1296;111007;-40
2022/11/25 19:38:41;;;;;;;132.20;79.10;;;;;;;3.27;93.67;98934.55;418656;1289;107898;-40
2022/11/25 19:48:49;;;;;;;120.10;71.10;;;;;;;3.26;93.59;98942.33;418528;1304;99243;-41
2022/11/25 19:58:57;;;;;;;111.80;63.30;;;;;;;3.29;93.72;98946.84;418303;1305;107361;-39
2022/11/25 20:09:06;;;;;;;91.70;51.20;;;;;;;3.36;94.00;98954.90;418569;1297;98580;-40
2022/11/25 20:19:14;;;;;;;94.40;50.90;;;;;;;3.57;94.36;98963.13;418478;1297;111058;-39
2022/11/25 20:29:24;;;;;;;139.20;66.70;;;;;;;3.69;94.42;98969.88;418447;1306;107215;-40
2022/11/25 20:39:37;;;;;;;152.00;71.70;;;;;;;3.72;94.58;98975.31;418578;1297;99269;-40
2022/11/25 20:49:45;;;;;;;124.70;72.60;;;;;;;3.76;94.39;98984.88;418584;1305;108210;-41
2022/11/25 20:59:52;;;;;;;108.00;62.80;;;;;;;3.84;94.35;98988.95;418410;1307;99243;-41
2022/11/25 21:10:00;;;;;;;105.70;65.20;;;;;;;3.90;94.27;98991.90;418539;1303;111580;-40
2022/11/25 21:20:09;;;;;;;113.10;64.70;;;;;;;3.98;94.35;98991.45;418396;1297;108394;-43
2022/11/25 21:50:34;;;;;;;109.60;64.70;;;;;;;3.93;94.19;98994.71;418487;1297;98586;-39
2022/11/25 22:00:41;;;;;;;100.80;59.90;;;;;;;3.87;94.31;99000.04;418519;1297;111907;-40
2022/11/25 22:10:51;;;;;;;112.20;65.60;;;;;;;3.83;94.30;99005.48;418506;1307;107112;-41
2022/11/25 22:20:57;;;;;;;;;;;;;;;3.79;94.36;99014.17;418484;1304;99261;-39
2022/11/25 22:31:10;;;;;;;111.20;63.90;;;;;;;3.75;94.47;99028.84;418470;1303;107459;-40
2022/11/25 22:41:17;;;;;;;107.50;63.50;;;;;;;3.73;94.57;99035.73;418465;1296;98189;-39
2022/11/25 22:51:27;;;;;;;153.60;79.00;;;;;;;3.72;94.58;99053.13;418589;1297;111954;-39
2022/11/25 23:01:34;;;;;;;169.00;88.40;;;;;;;3.64;94.64;99052.23;418640;1307;108479;-40
2022/11/25 23:11:42;;;;;;;116.00;69.60;;;;;;;3.51;94.37;99055.36;418319;1305;347397;-40
2022/11/25 23:21:49;;;;;;;102.70;60.60;;;;;;;3.53;94.50;99056.27;418536;1305;107717;-39
2022/11/25 23:31:56;;;;;;;97.90;59.30;;;;;;;3.62;94.80;99060.66;418429;1307;97999;-38
2022/11/25 23:42:03;;;;;;;100.10;58.90;;;;;;;3.72;94.84;99073.85;418550;1296;111556;-40
2022/11/25 23:52:14;;;;;;;100.40;60.50;;;;;;;3.76;94.76;99078.29;418530;1306;107685;-40
